Time;durP1;ratioP1;P1;durP2;ratioP2;P2;SDS_P1;SDS_P2;PMS_P1;PMS_P2;Temp;Humidity;BMP_temperature;BMP_pressure;BME280_temperature;BME280_humidity;BME280_pressure;Samples;Min_cycle;Max_cycle;Signal;HPM_P1;HPM_P2
2021/08/08 00:01:19;;;;;;;;;0.00;0.00;;;;;26.50;40.90;100095.47;5054929;28;46189;-66
2021/08/08 00:03:45;;;;;;;;;0.00;0.00;;;;;26.51;40.92;100090.88;5055161;28;45728;-66
2021/08/08 00:06:11;;;;;;;;;0.00;0.00;;;;;26.51;40.97;100099.06;5055027;28;45426;-66
2021/08/08 00:08:36;;;;;;;;;0.00;0.00;;;;;26.49;40.67;100085.53;5055422;28;45347;-66
2021/08/08 00:11:03;;;;;;;;;0.00;0.00;;;;;26.50;40.77;100095.47;5053856;28;48485;-66
2021/08/08 00:13:28;;;;;;;;;0.00;0.00;;;;;26.50;41.09;100091.84;5053942;28;45323;-66
2021/08/08 00:15:54;;;;;;;;;0.00;0.00;;;;;26.49;40.78;100090.97;5055403;28;45798;-64
2021/08/08 00:18:20;;;;;;;;;0.00;0.00;;;;;26.49;41.09;100090.09;5055562;28;45425;-66
2021/08/08 00:20:45;;;;;;;;;0.00;0.00;;;;;26.49;41.12;100098.28;5055228;28;45906;-66
2021/08/08 00:23:11;;;;;;;;;0.00;0.00;;;;;26.49;40.65;100090.09;5053732;28;45497;-67
2021/08/08 00:25:37;;;;;;;;;0.00;0.00;;;;;26.49;40.88;100090.97;5055188;28;45493;-66
2021/08/08 00:28:03;;;;;;;;;0.00;0.00;;;;;26.47;41.30;100092.91;5055349;28;45547;-66
2021/08/08 00:30:30;;;;;;;;;0.00;0.00;;;;;26.48;41.27;100102.88;5053441;28;45477;-66
2021/08/08 00:32:56;;;;;;;;;0.00;0.00;;;;;26.47;40.83;100092.06;5054881;28;45488;-66
2021/08/08 00:35:21;;;;;;;;;0.00;0.00;;;;;26.47;41.10;100102.97;5054929;28;45443;-66
2021/08/08 00:37:48;;;;;;;;;0.00;0.00;;;;;26.46;41.14;100095.75;5054922;28;45452;-67
2021/08/08 00:40:15;;;;;;;;;0.00;0.00;;;;;26.46;40.92;100102.09;5054881;28;45419;-66
2021/08/08 00:42:42;;;;;;;;;0.00;0.00;;;;;26.47;40.89;100098.38;5054842;28;45808;-66
2021/08/08 00:45:08;;;;;;;;;0.00;0.00;;;;;26.46;40.67;100098.47;5054811;28;44893;-66
2021/08/08 00:47:33;;;;;;;;;0.00;0.00;;;;;26.45;40.94;100100.31;5055132;28;45730;-66
2021/08/08 00:49:59;;;;;;;;;0.00;0.00;;;;;26.45;41.19;100105.78;5055679;28;45720;-66
2021/08/08 00:52:24;;;;;;;;;0.00;0.00;;;;;26.44;40.94;100109.50;5056473;28;45500;-66
2021/08/08 00:54:50;;;;;;;;;0.00;0.00;;;;;26.45;40.97;100113.09;5075046;28;45385;-66
2021/08/08 00:57:15;;;;;;;;;0.00;0.00;;;;;26.44;41.26;100104.03;5074693;28;45747;-66
2021/08/08 00:59:41;;;;;;;;;0.00;0.00;;;;;26.43;40.71;100107.72;5074745;28;46371;-66
2021/08/08 01:02:06;;;;;;;;;0.00;0.00;;;;;26.43;41.23;100112.31;5075214;28;45509;-66
2021/08/08 01:04:38;;;;;;;;;0.00;0.00;;;;;26.44;41.08;100111.31;5074916;28;45439;-67
2021/08/08 01:07:12;;;;;;;;;0.00;0.00;;;;;26.42;41.08;100111.44;5074928;28;45466;-66
2021/08/08 01:09:44;;;;;;;;;0.00;0.00;;;;;26.42;41.02;100111.44;5074571;28;46181;-66
2021/08/08 01:12:10;;;;;;;;;0.00;0.00;;;;;26.42;40.89;100102.34;5056982;28;45480;-66
2021/08/08 01:14:37;;;;;;;;;0.00;0.00;;;;;26.41;40.79;100101.50;5078305;28;45473;-66
2021/08/08 01:17:04;;;;;;;;;0.00;0.00;;;;;26.41;40.63;100109.66;5078217;28;45513;-66
2021/08/08 01:19:33;;;;;;;;;0.00;0.00;;;;;26.40;41.05;100104.31;5059882;28;47701;-66
2021/08/08 01:22:07;;;;;;;;;0.00;0.00;;;;;26.41;40.96;100108.81;5078343;28;45520;-66
2021/08/08 01:24:33;;;;;;;;;0.00;0.00;;;;;26.30;40.80;100088.53;5078325;28;45379;-66
2021/08/08 01:26:58;;;;;;;;;0.00;0.00;;;;;26.39;41.00;100110.75;5078531;28;45418;-66
2021/08/08 01:29:24;;;;;;;;;0.00;0.00;;;;;26.38;40.73;100109.88;5078015;28;45500;-67
2021/08/08 01:31:51;;;;;;;;;0.00;0.00;;;;;26.38;40.75;100109.88;5077930;28;45545;-67
2021/08/08 01:34:17;;;;;;;;;0.00;0.00;;;;;26.38;41.26;100115.31;5077899;28;45761;-66
2021/08/08 01:36:45;;;;;;;;;0.00;0.00;;;;;26.38;40.96;100125.34;5078291;28;45500;-66
2021/08/08 01:39:15;;;;;;;;;0.00;0.00;;;;;26.37;41.06;100109.97;5059812;28;46002;-66
2021/08/08 01:41:52;;;;;;;;;0.00;0.00;;;;;26.37;40.90;100118.13;5077956;28;45487;-67
2021/08/08 01:44:23;;;;;;;;;0.00;0.00;;;;;26.37;40.98;100119.00;5077924;28;45496;-66
2021/08/08 01:46:54;;;;;;;;;0.00;0.00;;;;;26.37;40.74;100113.56;5059878;28;45811;-66
2021/08/08 01:49:23;;;;;;;;;0.00;0.00;;;;;26.37;40.72;100124.47;5059802;28;45706;-66
2021/08/08 01:51:51;;;;;;;;;0.00;0.00;;;;;26.37;40.80;100113.56;5055941;28;45395;-66
2021/08/08 01:54:17;;;;;;;;;0.00;0.00;;;;;26.36;41.15;100117.28;5057810;28;45720;-66
2021/08/08 01:56:43;;;;;;;;;0.00;0.00;;;;;26.37;40.81;100118.13;5057362;28;45500;-66
2021/08/08 01:59:09;;;;;;;;;0.00;0.00;;;;;26.36;41.33;100128.19;5057386;28;46003;-67
2021/08/08 02:01:43;;;;;;;;;0.00;0.00;;;;;26.36;41.01;100122.72;5057137;28;45455;-66
2021/08/08 02:04:16;;;;;;;;;0.00;0.00;;;;;26.34;41.03;100114.63;5057516;28;45395;-66
2021/08/08 02:06:41;;;;;;;;;0.00;0.00;;;;;26.35;40.99;100126.41;5057834;28;45741;-66
2021/08/08 02:09:07;;;;;;;;;0.00;0.00;;;;;26.34;41.30;100113.75;5056550;28;45960;-66
2021/08/08 02:11:32;;;;;;;;;0.00;0.00;;;;;26.35;41.01;100124.56;5057494;28;45377;-66
2021/08/08 02:13:59;;;;;;;;;0.00;0.00;;;;;26.33;41.20;100117.44;5057687;28;45558;-66
2021/08/08 02:16:25;;;;;;;;;0.00;0.00;;;;;26.36;41.08;100136.34;5057409;28;45508;-66
2021/08/08 02:18:50;;;;;;;;;0.00;0.00;;;;;26.35;40.96;100130.00;5056895;28;46370;-66
2021/08/08 02:21:15;;;;;;;;;0.00;0.00;;;;;26.36;41.36;100130.91;5057226;28;44910;-66
2021/08/08 02:23:41;;;;;;;;;0.00;0.00;;;;;26.35;41.13;100137.31;5057360;28;44957;-66
2021/08/08 02:26:06;;;;;;;;;0.00;0.00;;;;;26.29;41.34;100122.19;5057027;28;45832;-67
2021/08/08 02:28:32;;;;;;;;;0.00;0.00;;;;;26.36;41.18;100136.34;5056905;28;45487;-66
2021/08/08 02:30:57;;;;;;;;;0.00;0.00;;;;;26.34;41.07;100135.56;5056937;28;45403;-66
2021/08/08 02:33:24;;;;;;;;;0.00;0.00;;;;;26.35;41.10;100145.50;5055326;28;45448;-67
2021/08/08 02:35:49;;;;;;;;;0.00;0.00;;;;;26.34;41.38;100138.31;5055408;28;45426;-66
2021/08/08 02:38:15;;;;;;;;;0.00;0.00;;;;;26.35;41.43;100137.31;5056585;28;45506;-66
2021/08/08 02:40:40;;;;;;;;;0.00;0.00;;;;;26.32;40.73;100135.66;5056405;28;45402;-66
2021/08/08 02:43:05;;;;;;;;;0.00;0.00;;;;;26.33;41.11;100131.06;5056825;28;45558;-67
2021/08/08 02:45:32;;;;;;;;;0.00;0.00;;;;;26.33;41.27;100140.13;5056840;28;45497;-66
2021/08/08 02:47:57;;;;;;;;;0.00;0.00;;;;;26.33;41.09;100139.25;5056452;28;46072;-66
2021/08/08 02:50:23;;;;;;;;;0.00;0.00;;;;;26.32;41.19;100143.84;5054790;28;45547;-67
2021/08/08 02:52:49;;;;;;;;;0.00;0.00;;;;;26.31;41.11;100152.09;5056911;28;45504;-67
2021/08/08 02:55:14;;;;;;;;;0.00;0.00;;;;;26.31;41.15;100152.09;5056378;28;45411;-67
2021/08/08 02:57:40;;;;;;;;;0.00;0.00;;;;;26.29;40.94;100134.97;5056254;28;45480;-66
2021/08/08 03:00:06;;;;;;;;;0.00;0.00;;;;;26.30;40.80;100150.38;5056586;28;45484;-66
2021/08/08 03:02:32;;;;;;;;;0.00;0.00;;;;;26.30;40.89;100147.63;5056404;28;45444;-66
2021/08/08 03:04:57;;;;;;;;;0.00;0.00;;;;;26.29;40.85;100149.47;5056576;28;45466;-66
2021/08/08 03:07:23;;;;;;;;;0.00;0.00;;;;;26.28;40.88;100158.63;5056161;28;45469;-66
2021/08/08 03:09:50;;;;;;;;;0.00;0.00;;;;;26.29;40.94;100159.50;5056630;28;45490;-66
2021/08/08 03:12:15;;;;;;;;;0.00;0.00;;;;;26.29;41.12;100156.78;5056451;28;45515;-66
2021/08/08 03:14:40;;;;;;;;;0.00;0.00;;;;;26.29;41.37;100157.63;5056668;28;45487;-67
2021/08/08 03:17:06;;;;;;;;;0.00;0.00;;;;;26.29;41.09;100154.03;5054506;28;47074;-66
2021/08/08 03:19:31;;;;;;;;;0.00;0.00;;;;;26.26;41.21;100154.25;5056364;28;45444;-66
2021/08/08 03:21:57;;;;;;;;;0.00;0.00;;;;;26.27;40.93;100156.00;5056299;28;45473;-66
2021/08/08 03:24:22;;;;;;;;;0.00;0.00;;;;;26.26;41.32;100151.53;5056241;28;45409;-66
2021/08/08 03:26:47;;;;;;;;;0.50;0.00;;;;;26.27;41.32;100154.13;5056033;28;46184;-66
2021/08/08 03:29:13;;;;;;;;;0.00;0.00;;;;;26.26;41.07;100159.69;5056011;28;45523;-66
2021/08/08 03:31:38;;;;;;;;;0.00;0.00;;;;;26.25;41.58;100158.78;5056031;28;45805;-66
2021/08/08 03:34:05;;;;;;;;;0.00;0.00;;;;;26.25;41.04;100163.38;5056096;28;45908;-66
2021/08/08 03:36:30;;;;;;;;;0.00;0.00;;;;;26.23;41.08;100157.16;5055006;28;45593;-66
2021/08/08 03:38:56;;;;;;;;;0.00;0.00;;;;;26.23;41.02;100166.19;5055981;28;45486;-67
2021/08/08 03:41:21;;;;;;;;;0.00;0.00;;;;;26.22;41.20;100167.19;5055724;28;45752;-66
2021/08/08 03:43:47;;;;;;;;;0.00;0.00;;;;;26.20;41.25;100166.41;5055923;28;44773;-66
2021/08/08 03:46:13;;;;;;;;;0.00;0.00;;;;;26.22;41.43;100163.56;5055612;28;45419;-66
2021/08/08 03:48:39;;;;;;;;;0.00;0.00;;;;;26.19;40.88;100167.34;5055654;28;45731;-66
2021/08/08 03:51:05;;;;;;;;;0.00;0.00;;;;;26.20;41.39;100170.94;5064253;28;45420;-67
2021/08/08 03:53:30;;;;;;;;;0.00;0.00;;;;;26.19;40.98;100177.38;5076336;28;45508;-66
2021/08/08 03:55:55;;;;;;;;;0.00;0.00;;;;;26.18;41.45;100167.44;5075787;28;45623;-66
2021/08/08 03:58:22;;;;;;;;;0.00;0.00;;;;;26.19;41.30;100169.19;5075526;28;45535;-67
2021/08/08 04:00:47;;;;;;;;;0.00;0.00;;;;;26.17;41.34;100174.75;5075768;28;45544;-66
2021/08/08 04:03:12;;;;;;;;;0.00;0.00;;;;;26.17;40.99;100168.41;5075706;27;45494;-66
2021/08/08 04:05:38;;;;;;;;;0.00;0.00;;;;;26.14;41.41;100175.81;5075386;28;45438;-67
2021/08/08 04:08:03;;;;;;;;;0.00;0.00;;;;;26.14;41.29;100181.25;5075566;28;45460;-66
2021/08/08 04:10:30;;;;;;;;;0.00;0.00;;;;;26.16;41.19;100181.19;5075614;28;45397;-66
2021/08/08 04:12:55;;;;;;;;;0.00;0.00;;;;;26.15;41.23;100190.31;5075740;28;45469;-66
2021/08/08 04:15:21;;;;;;;;;0.00;0.00;;;;;26.12;41.38;100194.09;5075544;28;45568;-66
2021/08/08 04:17:46;;;;;;;;;0.00;0.00;;;;;26.12;41.53;100196.81;5075324;28;45444;-66
2021/08/08 04:20:12;;;;;;;;;0.00;0.00;;;;;26.13;41.25;100205.88;5075616;28;46349;-67
2021/08/08 04:22:38;;;;;;;;;0.00;0.00;;;;;26.12;41.23;100205.00;5075522;28;45357;-66
2021/08/08 04:25:04;;;;;;;;;0.00;0.00;;;;;26.11;41.37;100200.50;5075362;28;45753;-66
2021/08/08 04:27:29;;;;;;;;;0.00;0.00;;;;;26.11;40.99;100197.78;5075030;28;45409;-66
2021/08/08 04:29:55;;;;;;;;;0.00;0.00;;;;;26.10;41.30;100193.31;5075445;28;45432;-67
2021/08/08 04:32:20;;;;;;;;;0.00;0.00;;;;;26.11;41.22;100203.22;5075499;28;45481;-66
2021/08/08 04:34:47;;;;;;;;;0.00;0.00;;;;;26.09;41.47;100197.00;5074966;28;45527;-66
2021/08/08 04:37:12;;;;;;;;;0.00;0.00;;;;;26.10;41.30;100200.63;5074876;28;45678;-66
2021/08/08 04:39:37;;;;;;;;;0.00;0.00;;;;;26.08;41.44;100197.97;5075299;28;45486;-66
2021/08/08 04:42:03;;;;;;;;;0.00;0.00;;;;;26.08;41.50;100203.44;5056780;28;45430;-66
2021/08/08 04:44:28;;;;;;;;;0.00;0.00;;;;;26.08;41.27;100200.69;5074910;28;45513;-66
2021/08/08 04:46:54;;;;;;;;;0.00;0.00;;;;;26.08;40.91;100200.69;5075004;28;45536;-66
2021/08/08 04:49:19;;;;;;;;;0.00;0.00;;;;;26.07;41.16;100208.97;5074945;28;45394;-66
2021/08/08 04:51:45;;;;;;;;;0.00;0.00;;;;;26.06;41.07;100202.63;5074202;28;45405;-66
2021/08/08 04:54:10;;;;;;;;;0.00;0.00;;;;;26.05;41.10;100203.59;5074900;28;46197;-66
2021/08/08 04:56:36;;;;;;;;;0.00;0.00;;;;;26.04;40.98;100201.84;5074950;28;45404;-67
2021/08/08 04:59:03;;;;;;;;;0.00;0.00;;;;;26.05;41.46;100203.59;5075013;28;45366;-66
2021/08/08 05:01:29;;;;;;;;;0.00;0.00;;;;;26.05;41.18;100219.94;5075313;28;45413;-67
2021/08/08 05:03:55;;;;;;;;;0.00;0.00;;;;;26.03;41.27;100208.25;5074749;28;45943;-66
2021/08/08 05:06:20;;;;;;;;;0.00;0.00;;;;;26.05;41.09;100211.78;5075104;28;45534;-66
2021/08/08 05:08:46;;;;;;;;;0.00;0.00;;;;;26.04;40.94;100218.19;5074856;28;45542;-67
2021/08/08 05:11:22;;;;;;;;;0.00;0.00;;;;;26.04;41.17;100212.75;5075234;28;45536;-67
2021/08/08 05:13:47;;;;;;;;;0.00;0.00;;;;;26.03;40.77;100210.97;5074760;28;45504;-64
2021/08/08 05:16:13;;;;;;;;;0.00;0.00;;;;;26.02;41.19;100206.50;5074436;28;45434;-64
2021/08/08 05:18:38;;;;;;;;;0.00;0.00;;;;;26.02;41.26;100214.69;5075162;28;45782;-65
2021/08/08 05:21:04;;;;;;;;;0.00;0.00;;;;;26.02;41.16;100220.13;5074727;28;45413;-65
2021/08/08 05:23:29;;;;;;;;;0.00;0.00;;;;;26.02;41.31;100222.88;5074617;28;45370;-65
2021/08/08 05:25:59;;;;;;;;;0.00;0.00;;;;;26.02;41.30;100209.25;5056527;28;45319;-65
2021/08/08 05:28:25;;;;;;;;;0.00;0.00;;;;;26.03;41.25;100213.72;5074540;28;44878;-65
2021/08/08 05:30:51;;;;;;;;;0.00;0.00;;;;;26.05;41.45;100217.22;5074879;28;45470;-65
2021/08/08 05:33:17;;;;;;;;;0.00;0.00;;;;;26.04;40.91;100215.47;5074558;28;45816;-65
2021/08/08 05:35:43;;;;;;;;;0.00;0.00;;;;;26.04;41.36;100214.59;5074008;28;45576;-65
2021/08/08 05:38:09;;;;;;;;;0.00;0.00;;;;;26.04;41.23;100210.03;5074530;28;45513;-65
2021/08/08 05:40:34;;;;;;;;;0.00;0.00;;;;;26.03;41.32;100216.44;5074419;28;45537;-65
2021/08/08 05:42:59;;;;;;;;;0.00;0.00;;;;;26.05;41.27;100222.66;5073922;28;46020;-65
2021/08/08 05:45:25;;;;;;;;;0.00;0.00;;;;;26.05;41.10;100217.22;5074185;28;45742;-65
2021/08/08 05:47:51;;;;;;;;;0.00;0.00;;;;;26.07;41.16;100219.88;5056199;28;45469;-65
2021/08/08 05:50:16;;;;;;;;;0.00;0.00;;;;;26.07;41.21;100230.75;5072980;28;45763;-65
2021/08/08 05:52:49;;;;;;;;;0.00;0.00;;;;;26.07;41.26;100226.19;5074376;28;46255;-65
2021/08/08 05:55:15;;;;;;;;;0.00;0.00;;;;;26.08;41.07;100232.53;5074292;28;45503;-65
2021/08/08 05:57:41;;;;;;;;;0.00;0.00;;;;;26.07;41.14;100230.75;5073813;28;45484;-65
2021/08/08 06:00:06;;;;;;;;;0.00;0.00;;;;;26.07;41.17;100231.63;5077858;28;45373;-65
2021/08/08 06:02:32;;;;;;;;;0.00;0.00;;;;;26.07;41.11;100226.19;5077409;27;45453;-65
2021/08/08 06:04:57;;;;;;;;;0.00;0.00;;;;;26.07;41.04;100231.63;5077319;28;45505;-65
2021/08/08 06:07:23;;;;;;;;;0.00;0.00;;;;;26.08;41.34;100241.59;5077576;28;45477;-65
2021/08/08 06:09:48;;;;;;;;;0.00;0.00;;;;;26.06;41.04;100234.47;5077958;28;45444;-65
2021/08/08 06:12:13;;;;;;;;;0.00;0.00;;;;;26.09;40.86;100240.59;5077329;28;45370;-65
2021/08/08 06:14:39;;;;;;;;;0.00;0.00;;;;;26.10;41.05;100236.91;5076905;28;45440;-65
2021/08/08 06:17:04;;;;;;;;;0.00;0.00;;;;;26.11;41.21;100243.25;5077677;28;45586;-65
2021/08/08 06:19:30;;;;;;;;;0.00;0.00;;;;;26.11;41.23;100233.22;5077858;28;45436;-65
2021/08/08 06:21:55;;;;;;;;;0.00;0.00;;;;;26.10;41.13;100231.47;5077387;28;45508;-65
2021/08/08 06:24:20;;;;;;;;;0.00;0.00;;;;;26.11;40.93;100230.47;5077368;28;45392;-65
2021/08/08 06:26:47;;;;;;;;;0.00;0.00;;;;;26.12;40.85;100245.88;5077351;28;45739;-65
2021/08/08 06:29:12;;;;;;;;;0.00;0.00;;;;;26.12;40.86;100245.88;5077490;28;45457;-66
2021/08/08 06:31:38;;;;;;;;;0.00;0.00;;;;;26.13;40.84;100246.75;5076876;28;45513;-65
2021/08/08 06:34:03;;;;;;;;;0.00;0.00;;;;;26.12;40.80;100253.19;5077046;28;45510;-65
2021/08/08 06:36:29;;;;;;;;;0.00;0.00;;;;;26.13;40.90;100253.06;5076992;28;45460;-65
2021/08/08 06:38:57;;;;;;;;;0.00;0.00;;;;;26.13;40.90;100263.09;5077369;28;45518;-65
2021/08/08 06:41:23;;;;;;;;;0.33;0.00;;;;;26.13;40.62;100266.69;5076607;28;45406;-65
2021/08/08 06:43:48;;;;;;;;;0.00;0.00;;;;;26.13;40.93;100269.44;5058450;28;45474;-65
2021/08/08 06:46:14;;;;;;;;;0.00;0.00;;;;;26.13;41.07;100269.44;5077158;28;45416;-65
2021/08/08 06:48:39;;;;;;;;;0.00;0.00;;;;;26.13;40.91;100258.53;5059107;28;45449;-65
2021/08/08 06:51:04;;;;;;;;;0.00;0.00;;;;;26.13;41.01;100258.53;5075426;28;46030;-65
2021/08/08 06:53:30;;;;;;;;;0.00;0.00;;;;;26.13;40.91;100263.97;5076692;28;45388;-65
2021/08/08 06:55:57;;;;;;;;;0.00;0.00;;;;;26.16;40.69;100268.41;5076852;28;45397;-66
2021/08/08 06:58:23;;;;;;;;;0.00;0.00;;;;;26.15;40.66;100264.75;5076873;28;45468;-66
2021/08/08 07:00:49;;;;;;;;;0.00;0.00;;;;;26.17;40.84;100269.25;5076632;28;45548;-65
2021/08/08 07:03:15;;;;;;;;;0.00;0.00;;;;;26.18;40.69;100269.19;5076422;28;45433;-65
2021/08/08 07:05:40;;;;;;;;;0.00;0.00;;;;;26.18;40.92;100271.00;5076537;28;45413;-65
2021/08/08 07:08:07;;;;;;;;;0.00;0.00;;;;;26.22;40.65;100288.94;5076782;28;45455;-65
2021/08/08 07:10:32;;;;;;;;;0.00;0.00;;;;;26.21;40.38;100282.63;5075347;28;45488;-65
2021/08/08 07:12:59;;;;;;;;;0.00;0.00;;;;;26.22;40.47;100278.03;5076236;28;45426;-66
2021/08/08 07:15:24;;;;;;;;;0.00;0.00;;;;;26.25;40.78;100291.50;5076548;28;45583;-66
2021/08/08 07:17:50;;;;;;;;;0.00;0.00;;;;;26.28;40.39;100294.06;5058192;28;45486;-66
2021/08/08 07:20:15;;;;;;;;;0.00;0.00;;;;;26.28;40.43;100296.78;5057795;28;47216;-66
2021/08/08 07:22:47;;;;;;;;;0.00;0.00;;;;;26.30;40.73;100305.75;5076316;28;45842;-66
2021/08/08 07:25:12;;;;;;;;;0.00;0.00;;;;;26.30;40.83;100298.44;5076577;28;45419;-66
2021/08/08 07:27:38;;;;;;;;;0.00;0.00;;;;;26.31;40.23;100294.72;5076490;28;45381;-66
2021/08/08 07:30:04;;;;;;;;;0.00;0.00;;;;;26.34;40.31;100299.16;5076558;28;46034;-66
2021/08/08 07:32:30;;;;;;;;;0.00;0.00;;;;;26.35;40.45;100295.44;5058086;28;45497;-66
2021/08/08 07:34:55;;;;;;;;;0.00;0.00;;;;;26.37;40.36;100301.69;5076347;28;45536;-66
2021/08/08 07:37:29;;;;;;;;;0.00;0.00;;;;;26.35;40.53;100296.31;5076384;28;45555;-66
2021/08/08 07:39:54;;;;;;;;;0.00;0.00;;;;;26.39;40.27;100304.31;5076492;28;45488;-66
2021/08/08 07:42:20;;;;;;;;;0.00;0.00;;;;;26.41;40.11;100305.97;5057693;28;45437;-66
2021/08/08 07:44:45;;;;;;;;;0.00;0.00;;;;;26.41;40.54;100311.44;5076371;28;45975;-65
2021/08/08 07:47:15;;;;;;;;;0.00;0.00;;;;;26.41;40.35;100310.56;5076341;28;45448;-65
2021/08/08 07:49:41;;;;;;;;;0.00;0.00;;;;;26.43;40.52;100314.09;5057688;28;47081;-65
2021/08/08 07:52:19;;;;;;;;;0.00;0.00;;;;;26.44;40.13;100316.72;5074795;28;45556;-65
2021/08/08 07:54:44;;;;;;;;;0.00;0.00;;;;;26.45;40.47;100306.69;5076603;28;45448;-65
2021/08/08 07:57:10;;;;;;;;;0.00;0.00;;;;;26.45;40.46;100321.19;5076001;28;45407;-66
2021/08/08 07:59:35;;;;;;;;;0.00;0.00;;;;;26.45;40.53;100323.91;5075768;28;45414;-66
2021/08/08 08:02:01;;;;;;;;;0.00;0.00;;;;;26.48;40.21;100339.22;5075809;27;45607;-66
2021/08/08 08:04:26;;;;;;;;;0.00;0.00;;;;;26.47;40.46;100338.34;5075960;28;45431;-66
2021/08/08 08:06:51;;;;;;;;;0.00;0.00;;;;;26.48;40.16;100337.38;5076032;28;45884;-66
2021/08/08 08:09:17;;;;;;;;;0.00;0.00;;;;;26.47;40.10;100337.47;5075540;28;45426;-66
2021/08/08 08:11:43;;;;;;;;;0.00;0.00;;;;;26.51;40.30;100339.91;5075464;28;45409;-66
2021/08/08 08:14:09;;;;;;;;;0.00;0.00;;;;;26.50;40.07;100342.72;5075656;28;46037;-66
2021/08/08 08:16:35;;;;;;;;;0.00;0.00;;;;;26.52;40.15;100355.34;5075548;28;45432;-66
2021/08/08 08:19:01;;;;;;;;;0.00;0.00;;;;;26.51;40.38;100356.28;5074610;28;46122;-66
2021/08/08 08:21:26;;;;;;;;;0.00;0.00;;;;;26.53;39.93;100364.38;5075481;28;45362;-66
2021/08/08 08:23:51;;;;;;;;;0.00;0.00;;;;;26.52;39.96;100358.06;5075758;28;45772;-66
2021/08/08 08:26:17;;;;;;;;;0.00;0.00;;;;;26.54;40.03;100361.56;5076013;28;45481;-66
2021/08/08 08:28:42;;;;;;;;;0.00;0.00;;;;;26.55;39.89;100366.03;5075037;28;46088;-66
2021/08/08 08:31:09;;;;;;;;;0.00;0.00;;;;;26.55;40.20;100368.78;5075380;28;45417;-66
2021/08/08 08:33:34;;;;;;;;;0.00;0.00;;;;;26.57;40.22;100370.53;5075427;28;45551;-66
2021/08/08 08:36:06;;;;;;;;;0.00;0.00;;;;;26.59;39.78;100377.69;5075459;28;45420;-66
2021/08/08 08:38:32;;;;;;;;;0.00;0.00;;;;;26.59;39.83;100374.09;5075427;28;45353;-66
2021/08/08 08:40:57;;;;;;;;;0.00;0.00;;;;;26.60;39.64;100375.84;5056685;28;45416;-66
2021/08/08 08:43:29;;;;;;;;;0.00;0.00;;;;;26.62;39.89;100363.00;5056967;28;45422;-66
2021/08/08 08:45:55;;;;;;;;;0.00;0.00;;;;;26.62;39.80;100374.81;5075581;28;45388;-66
2021/08/08 08:48:21;;;;;;;;;0.00;0.00;;;;;26.64;39.60;100377.41;5075228;28;45381;-66
2021/08/08 08:50:54;;;;;;;;;0.00;0.00;;;;;26.67;39.87;100377.25;5073733;28;45463;-66
2021/08/08 08:53:21;;;;;;;;;0.00;0.00;;;;;26.68;39.71;100384.44;5074911;28;45476;-66
2021/08/08 08:55:47;;;;;;;;;0.00;0.00;;;;;26.69;40.00;100383.50;5075471;28;44820;-66
2021/08/08 08:58:12;;;;;;;;;0.00;0.00;;;;;26.72;40.02;100386.03;5074712;28;45420;-66
2021/08/08 09:00:37;;;;;;;;;0.00;0.00;;;;;26.71;39.58;100382.44;5075059;28;45422;-66
2021/08/08 09:03:03;;;;;;;;;0.00;0.00;;;;;26.73;39.94;100394.13;5075126;28;45406;-66
2021/08/08 09:05:30;;;;;;;;;0.00;0.00;;;;;26.74;40.15;100385.00;5075020;28;45794;-66
2021/08/08 09:08:33;;;;;;;;;0.00;0.00;;;;;26.78;39.51;100392.97;5056228;28;45402;-66
2021/08/08 09:11:00;;;;;;;;;0.00;0.00;;;;;26.78;39.82;100385.66;5056453;28;45839;-66
2021/08/08 09:13:26;;;;;;;;;0.00;0.00;;;;;26.80;39.41;100389.19;5074915;28;45472;-66
2021/08/08 09:15:51;;;;;;;;;0.00;0.00;;;;;26.82;39.45;100389.97;5074743;28;44862;-66
2021/08/08 09:18:21;;;;;;;;;0.00;0.00;;;;;26.81;39.49;100379.16;5074766;28;46054;-66
2021/08/08 09:20:49;;;;;;;;;0.00;0.00;;;;;26.85;39.76;100387.06;5074838;28;45497;-66
2021/08/08 09:23:16;;;;;;;;;0.00;0.00;;;;;26.85;39.81;100387.06;5075086;28;45461;-66
2021/08/08 09:25:56;;;;;;;;;0.00;0.00;;;;;26.87;39.48;100389.72;5056541;28;45569;-66
2021/08/08 09:28:29;;;;;;;;;0.00;0.00;;;;;26.87;39.93;100393.31;5056382;28;47306;-66
2021/08/08 09:30:56;;;;;;;;;0.00;0.00;;;;;26.88;39.20;100397.78;5074612;28;44844;-66
2021/08/08 09:33:23;;;;;;;;;0.00;0.00;;;;;26.90;39.39;100406.75;5075813;28;45484;-66
2021/08/08 09:35:55;;;;;;;;;0.00;0.00;;;;;26.90;39.27;100401.31;5078316;28;45345;-66
2021/08/08 09:38:21;;;;;;;;;0.00;0.00;;;;;26.92;39.51;100404.84;5078018;28;45904;-66
2021/08/08 09:41:01;;;;;;;;;0.00;0.00;;;;;26.93;39.10;100403.88;5078153;28;45402;-66
2021/08/08 09:43:29;;;;;;;;;0.00;0.00;;;;;26.94;39.59;100402.91;5078070;28;45600;-66
2021/08/08 09:45:55;;;;;;;;;0.00;0.00;;;;;26.96;39.64;100405.53;5078104;28;45421;-66
2021/08/08 09:48:20;;;;;;;;;0.00;0.00;;;;;26.97;39.56;100409.16;5077855;28;45681;-66
2021/08/08 09:50:46;;;;;;;;;0.00;0.00;;;;;26.98;39.40;100409.03;5076445;28;45513;-66
2021/08/08 09:53:20;;;;;;;;;0.00;0.00;;;;;26.99;39.41;100418.13;5077922;28;45525;-66
2021/08/08 09:55:46;;;;;;;;;0.00;0.00;;;;;26.99;39.34;100405.34;5078210;28;45427;-66
2021/08/08 09:58:22;;;;;;;;;0.00;0.00;;;;;27.02;38.97;100423.38;5059075;28;47090;-66
2021/08/08 10:00:57;;;;;;;;;0.00;0.00;;;;;27.02;39.66;100420.66;5077632;28;45530;-66
2021/08/08 10:03:22;;;;;;;;;0.00;0.00;;;;;27.03;39.11;100422.44;5077488;28;45421;-66
2021/08/08 10:05:47;;;;;;;;;0.00;0.00;;;;;27.04;38.93;100426.91;5077709;28;45413;-66
2021/08/08 10:08:15;;;;;;;;;0.00;0.00;;;;;27.05;39.10;100418.63;5077341;28;46171;-66
2021/08/08 10:10:43;;;;;;;;;0.00;0.00;;;;;27.05;38.87;100424.09;5077410;28;45498;-66
2021/08/08 10:13:35;;;;;;;;;0.00;0.00;;;;;27.08;39.24;100426.63;5077804;28;45393;-66
2021/08/08 10:16:04;;;;;;;;;0.00;0.00;;;;;27.07;38.84;100422.16;5077511;28;45374;-66
2021/08/08 10:18:36;;;;;;;;;0.00;0.00;;;;;27.08;39.36;100426.63;5077051;28;45418;-67
2021/08/08 10:21:03;;;;;;;;;0.00;0.00;;;;;27.08;39.32;100431.22;5077357;28;45449;-66
2021/08/08 10:23:31;;;;;;;;;0.00;0.00;;;;;27.11;39.05;100422.84;5058161;28;45435;-66
2021/08/08 10:25:56;;;;;;;;;0.00;0.00;;;;;27.11;39.21;100429.19;5077880;28;44861;-66
2021/08/08 10:28:23;;;;;;;;;0.00;0.00;;;;;27.11;39.37;100439.22;5058727;28;47070;-66
2021/08/08 10:30:49;;;;;;;;;0.00;0.00;;;;;27.09;38.92;100433.84;5058968;28;45427;-66
2021/08/08 10:33:14;;;;;;;;;0.00;0.00;;;;;27.09;38.94;100443.91;5077414;28;45500;-66
2021/08/08 10:35:42;;;;;;;;;0.00;0.00;;;;;27.12;39.21;100435.50;5059126;28;45390;-66
2021/08/08 10:38:09;;;;;;;;;0.00;0.00;;;;;27.11;39.18;100440.09;5076912;28;45199;-66
2021/08/08 10:40:37;;;;;;;;;0.00;0.00;;;;;27.11;38.86;100431.03;5076973;28;45379;-66
2021/08/08 10:43:05;;;;;;;;;0.00;0.00;;;;;27.12;39.32;100430.06;5058708;28;45439;-66
2021/08/08 10:45:33;;;;;;;;;0.00;0.00;;;;;27.13;39.14;100435.44;5077060;28;45483;-66
2021/08/08 10:48:01;;;;;;;;;0.00;0.00;;;;;27.13;38.83;100426.38;5076744;28;46751;-66
2021/08/08 10:50:47;;;;;;;;;0.00;0.00;;;;;27.14;38.84;100434.44;5077171;28;45431;-66
2021/08/08 10:53:40;;;;;;;;;0.00;0.00;;;;;27.14;39.11;100437.16;5076714;28;45442;-66
2021/08/08 10:56:11;;;;;;;;;0.00;0.00;;;;;27.14;38.92;100430.84;5073268;28;45297;-66
2021/08/08 10:58:38;;;;;;;;;0.00;0.00;;;;;27.14;39.20;100426.25;5076645;28;45483;-66
2021/08/08 11:01:22;;;;;;;;;0.00;0.00;;;;;27.15;39.11;100427.16;5076836;28;45481;-66
2021/08/08 11:04:00;;;;;;;;;0.00;0.00;;;;;27.16;39.00;100430.75;5076787;27;45516;-66
2021/08/08 11:06:28;;;;;;;;;0.00;0.00;;;;;27.16;39.04;100426.16;5076888;28;45401;-66
2021/08/08 11:08:56;;;;;;;;;0.00;0.00;;;;;27.17;39.19;100436.13;5076471;28;45784;-66
2021/08/08 11:11:26;;;;;;;;;0.00;0.00;;;;;27.18;38.69;100426.09;5076485;28;44896;-66
2021/08/08 11:14:09;;;;;;;;;0.00;0.00;;;;;27.18;39.13;100424.22;5076398;28;45409;-66
2021/08/08 11:16:35;;;;;;;;;0.00;0.00;;;;;27.18;38.98;100426.09;5076549;28;45425;-66
2021/08/08 11:19:01;;;;;;;;;0.00;0.00;;;;;27.19;38.68;100417.81;5058279;28;47296;-66
2021/08/08 11:21:26;;;;;;;;;0.00;0.00;;;;;27.19;39.09;100417.81;5076442;28;45770;-66
2021/08/08 11:24:18;;;;;;;;;0.00;0.00;;;;;27.20;39.09;100425.00;5076255;28;45837;-66